Jaffrey, New Hampshire
Current Conditions -  °F | °C
As of 2:52 PM on Sunday 25 Jan 2015 (Local Time) from KAFN Reporting Station
Clear Clear  
Wind Chill: -6°   Ceiling: Unl
Heat Index: -2°   Visibility: 10mi
Dew Point: -17°   Wind: 9mph
Humidity: 30%   Direction: 310°NW
Pressure: 29.67"   Gusts: 17mph
Location:  42.81°N, 72.02°W
Report Text: KAFN 251952Z AUTO 31008G15KT 280V350 10SM CLR M02/M17 A2967 RMK AO2 SLP065 T10171172
Loading
Personal Weather Stations






























Interactive Weather Map New forecast layout! Learn more

10-Day Weather Forecast

Advertisements
Track Severe Weather on mobile